Time;durP1;ratioP1;P1;durP2;ratioP2;P2;SDS_P1;SDS_P2;PMS_P1;PMS_P2;Temp;Humidity;BMP_temperature;BMP_pressure;BME280_temperature;BME280_humidity;BME280_pressure;Samples;Min_cycle;Max_cycle;Signal;HPM_P1;HPM_P2
2022/11/30 00:02:04;;;;;;;96.20;37.00;;;;;;;4.64;100.00;101962.38;7391858;19;20416;-60
2022/11/30 00:04:34;;;;;;;96.97;36.17;;;;;;;4.68;100.00;101962.78;7394047;19;20432;-58
2022/11/30 00:07:04;;;;;;;100.33;37.30;;;;;;;4.57;100.00;101956.75;7392376;19;21256;-59
2022/11/30 00:09:34;;;;;;;98.80;36.47;;;;;;;4.34;100.00;101959.91;7394645;19;20397;-57
2022/11/30 00:12:03;;;;;;;88.03;33.97;;;;;;;4.40;100.00;101960.44;7389591;19;21059;-56
2022/11/30 00:14:35;;;;;;;92.80;36.43;;;;;;;4.43;100.00;101960.72;7398775;19;20784;-55
2022/11/30 00:17:05;;;;;;;102.10;38.90;;;;;;;4.50;100.00;101961.22;7391076;19;20415;-54
2022/11/30 00:19:34;;;;;;;85.83;34.70;;;;;;;4.55;100.00;101952.28;7395894;19;20402;-55
2022/11/30 00:22:04;;;;;;;101.93;39.37;;;;;;;4.46;100.00;101963.50;7390834;19;20436;-58
2022/11/30 00:24:33;;;;;;;84.70;33.07;;;;;;;4.75;100.00;101960.75;7393495;19;20420;-57
2022/11/30 00:27:03;;;;;;;100.07;36.70;;;;;;;4.68;100.00;101965.31;7395078;19;20471;-59
2022/11/30 00:29:33;;;;;;;95.97;36.20;;;;;;;4.52;100.00;101964.81;7393655;19;20388;-59
2022/11/30 00:32:05;;;;;;;96.10;35.73;;;;;;;4.35;100.00;101971.03;7390219;19;20460;-57
2022/11/30 00:34:34;;;;;;;98.03;36.63;;;;;;;4.57;100.00;101968.66;7393199;19;20430;-57
2022/11/30 00:37:04;;;;;;;99.60;39.53;;;;;;;4.73;100.00;101971.72;7392115;19;21284;-59
2022/11/30 00:39:33;;;;;;;108.20;35.63;;;;;;;4.62;100.00;101976.72;7395954;19;20389;-59
2022/11/30 00:42:04;;;;;;;88.67;36.97;;;;;;;4.62;100.00;101981.81;7391250;19;20501;-58
2022/11/30 00:44:33;;;;;;;99.93;36.00;;;;;;;4.52;100.00;101996.34;7393340;19;20463;-59
2022/11/30 00:47:06;;;;;;;79.63;33.60;;;;;;;4.72;100.00;101987.84;7390278;19;20442;-56
2022/11/30 00:49:35;;;;;;;95.30;37.13;;;;;;;4.49;100.00;101997.75;7393057;19;20388;-57
2022/11/30 00:52:05;;;;;;;96.47;36.03;;;;;;;4.36;100.00;101993.25;7390377;19;20442;-58
2022/11/30 00:54:34;;;;;;;96.03;38.20;;;;;;;4.34;100.00;101995.66;7392825;19;20415;-58
2022/11/30 00:57:04;;;;;;;108.67;38.20;;;;;;;4.48;100.00;101998.53;7391284;19;20444;-56
2022/11/30 00:59:33;;;;;;;93.50;35.10;;;;;;;4.56;100.00;101997.53;7394303;19;20755;-58
2022/11/30 01:02:05;;;;;;;107.37;34.53;;;;;;;4.61;100.00;101993.69;7389524;19;20432;-58
2022/11/30 01:04:35;;;;;;;92.50;36.47;;;;;;;4.66;100.00;101989.88;7392332;19;20438;-58
2022/11/30 01:07:05;;;;;;;103.43;35.53;;;;;;;4.61;100.00;102001.38;7389220;19;20419;-56
2022/11/30 01:09:34;;;;;;;101.87;35.67;;;;;;;4.32;100.00;102005.75;7392959;19;20772;-52
2022/11/30 01:12:04;;;;;;;92.67;35.77;;;;;;;4.33;100.00;102004.09;7392045;19;20424;-57
2022/11/30 01:14:33;;;;;;;103.87;36.70;;;;;;;4.47;100.00;102000.19;7392635;19;21272;-56
2022/11/30 01:17:05;;;;;;;92.13;36.20;;;;;;;4.35;100.00;102002.56;7389012;19;20420;-57
2022/11/30 01:19:35;;;;;;;101.37;35.77;;;;;;;4.41;100.00;102002.22;7393468;19;20400;-54
2022/11/30 01:22:05;;;;;;;105.47;37.03;;;;;;;4.54;100.00;102004.16;7389292;19;20416;-53
2022/11/30 01:24:34;;;;;;;102.60;36.93;;;;;;;4.73;100.00;101997.31;7391822;19;20947;-52
2022/11/30 01:27:04;;;;;;;97.03;36.50;;;;;;;4.72;100.00;101994.66;7390941;19;20404;-56
2022/11/30 01:29:34;;;;;;;99.40;37.33;;;;;;;4.84;100.00;101994.78;7392241;19;20380;-59
2022/11/30 01:32:07;;;;;;;93.67;36.60;;;;;;;4.71;100.00;101993.72;7389282;19;20400;-58
2022/11/30 01:34:36;;;;;;;100.70;36.60;;;;;;;4.44;100.00;101998.28;7391482;19;20427;-58
2022/11/30 01:37:07;;;;;;;95.47;36.43;;;;;;;4.35;100.00;102000.00;7389646;19;20422;-56
2022/11/30 01:39:36;;;;;;;89.40;35.97;;;;;;;4.21;100.00;101997.94;7394318;19;20403;-59
2022/11/30 01:42:06;;;;;;;106.47;37.87;;;;;;;4.38;100.00;101991.72;7389567;19;20917;-57
2022/11/30 01:44:52;;;;;;;91.37;35.90;;;;;;;4.60;100.00;101979.13;7391190;19;20447;-56
2022/11/30 01:47:27;;;;;;;105.70;36.73;;;;;;;4.62;100.00;101982.75;7387515;19;20433;-58
2022/11/30 01:49:59;;;;;;;104.53;38.23;;;;;;;4.54;100.00;101986.28;7391190;19;20403;-57
2022/11/30 01:52:32;;;;;;;105.00;37.93;;;;;;;4.50;100.00;101980.00;7389265;19;20447;-57
2022/11/30 01:55:09;;;;;;;105.90;38.53;;;;;;;4.42;100.00;101975.91;7390153;19;20430;-54
2022/11/30 01:57:41;;;;;;;100.63;37.97;;;;;;;4.37;100.00;101982.25;7391362;19;20427;-56
2022/11/30 02:00:13;;;;;;;95.10;34.63;;;;;;;4.26;100.00;101977.09;7391428;19;21036;-56
2022/11/30 02:02:51;;;;;;;108.20;37.70;;;;;;;4.13;100.00;101974.25;7387580;19;20409;-58
2022/11/30 02:05:22;;;;;;;106.37;39.30;;;;;;;4.04;100.00;101972.69;7389523;19;20424;-54
2022/11/30 02:07:51;;;;;;;105.87;37.60;;;;;;;4.25;100.00;101974.44;7388382;19;20408;-58
2022/11/30 02:10:25;;;;;;;101.03;38.00;;;;;;;4.28;100.00;101980.72;7390617;19;20391;-59
2022/11/30 02:13:21;;;;;;;103.70;37.23;;;;;;;4.43;100.00;101983.72;7382086;19;21393;-58
2022/11/30 02:15:55;;;;;;;98.90;36.20;;;;;;;4.41;100.00;101987.78;7392160;19;20398;-58
2022/11/30 02:18:32;;;;;;;109.33;35.20;;;;;;;4.59;100.00;101975.69;7389169;19;20408;-56
2022/11/30 02:21:08;;;;;;;102.47;38.30;;;;;;;4.68;100.00;101973.00;7387625;19;20923;-58
2022/11/30 02:23:58;;;;;;;111.20;38.30;;;;;;;4.43;100.00;101973.47;7391447;19;20886;-59
2022/11/30 02:27:00;;;;;;;93.40;36.07;;;;;;;4.43;100.00;101976.03;7388691;19;20412;-59
2022/11/30 02:29:34;;;;;;;92.67;36.50;;;;;;;4.34;100.00;101980.34;7389595;19;20415;-59
2022/11/30 02:32:06;;;;;;;89.77;35.80;;;;;;;4.13;100.00;101984.47;7388283;19;20423;-57
2022/11/30 02:34:38;;;;;;;103.70;36.43;;;;;;;4.22;100.00;101979.28;7389725;19;20415;-58
2022/11/30 02:37:09;;;;;;;104.53;37.37;;;;;;;4.51;100.00;101975.81;7387466;19;20428;-59
2022/11/30 02:39:39;;;;;;;103.80;37.10;;;;;;;5.03;100.00;101975.88;7392207;19;20418;-58
2022/11/30 02:42:12;;;;;;;96.30;35.23;;;;;;;5.70;100.00;101979.66;7387256;19;20427;-56
2022/11/30 02:44:48;;;;;;;103.17;37.37;;;;;;;5.34;100.00;101983.53;7389041;19;20421;-57
2022/11/30 02:47:23;;;;;;;100.03;35.67;;;;;;;5.78;100.00;101980.25;7385276;19;20771;-59
2022/11/30 02:49:56;;;;;;;96.87;37.37;;;;;;;5.87;100.00;101983.56;7390326;19;20406;-59
2022/11/30 02:52:28;;;;;;;93.50;35.73;;;;;;;5.79;100.00;101999.97;7387040;19;20990;-57
2022/11/30 02:55:01;;;;;;;94.57;35.67;;;;;;;6.04;100.00;102007.09;7389099;19;20419;-57
2022/11/30 02:57:31;;;;;;;88.07;34.53;;;;;;;5.87;100.00;102008.28;7390275;19;20478;-56
2022/11/30 03:00:05;;;;;;;87.30;33.50;;;;;;;5.83;100.00;102019.94;7389816;19;20378;-58
2022/11/30 03:02:35;;;;;;;93.43;35.43;;;;;;;5.85;100.00;102020.97;7386477;19;20780;-57
2022/11/30 03:05:05;;;;;;;91.97;35.97;;;;;;;5.65;100.00;102032.16;7387740;19;20420;-55
2022/11/30 03:07:34;;;;;;;99.60;36.70;;;;;;;4.88;100.00;102037.75;7387183;19;20418;-58
2022/11/30 03:10:04;;;;;;;89.70;35.33;;;;;;;4.47;100.00;102046.22;7389584;19;20393;-59
2022/11/30 03:12:33;;;;;;;104.07;35.03;;;;;;;4.25;100.00;102035.78;7386372;19;20798;-58
2022/11/30 03:15:06;;;;;;;103.07;37.10;;;;;;;4.05;100.00;102038.34;7392222;19;20434;-59
2022/11/30 03:17:35;;;;;;;97.33;36.33;;;;;;;3.83;100.00;102035.53;7382393;19;20429;-59
2022/11/30 03:20:06;;;;;;;96.87;35.97;;;;;;;3.88;100.00;102028.28;7389485;19;20397;-56
2022/11/30 03:22:35;;;;;;;99.60;35.27;;;;;;;3.80;100.00;102029.25;7385452;19;21051;-59
2022/11/30 03:25:05;;;;;;;110.43;39.27;;;;;;;3.73;100.00;102017.56;7387700;19;20437;-57
2022/11/30 03:27:35;;;;;;;105.20;37.70;;;;;;;3.62;100.00;102016.63;7386601;19;20416;-59
2022/11/30 03:30:08;;;;;;;118.43;38.23;;;;;;;3.58;100.00;102023.09;7390991;19;20951;-57
2022/11/30 03:32:38;;;;;;;107.23;37.27;;;;;;;3.57;100.00;102011.13;7393148;19;20450;-57
2022/11/30 03:35:08;;;;;;;119.10;38.30;;;;;;;3.83;100.00;102012.56;7394281;19;20430;-59
2022/11/30 03:37:38;;;;;;;102.37;37.10;;;;;;;4.19;100.00;102011.47;7393759;19;21090;-59
2022/11/30 03:40:12;;;;;;;115.17;38.67;;;;;;;4.33;100.00;102004.09;7392752;19;20393;-55
2022/11/30 03:42:41;;;;;;;112.97;38.73;;;;;;;4.34;100.00;102000.78;7390196;19;20430;-57
2022/11/30 03:45:14;;;;;;;117.13;38.67;;;;;;;4.16;100.00;102005.19;7391151;19;20427;-57
2022/11/30 03:47:43;;;;;;;111.77;37.30;;;;;;;4.24;100.00;102005.84;7390706;19;20401;-59
2022/11/30 03:50:13;;;;;;;96.90;36.33;;;;;;;4.19;100.00;102006.34;7394013;19;20407;-56
2022/11/30 03:52:42;;;;;;;101.87;37.73;;;;;;;4.43;100.00;102000.69;7390742;19;20415;-58
2022/11/30 03:55:12;;;;;;;114.13;39.13;;;;;;;4.33;100.00;101991.31;7392474;19;20427;-58
2022/11/30 03:57:41;;;;;;;111.37;38.50;;;;;;;4.29;100.00;101990.16;7390474;19;20424;-57
2022/11/30 04:00:15;;;;;;;109.37;36.73;;;;;;;4.28;100.00;101996.06;7393246;19;20414;-59
2022/11/30 04:02:45;;;;;;;106.47;36.40;;;;;;;4.23;100.00;101991.28;7390914;19;20437;-59
2022/11/30 04:05:14;;;;;;;109.90;37.60;;;;;;;4.54;100.00;101993.94;7392590;19;20424;-59
2022/11/30 04:07:44;;;;;;;117.80;38.20;;;;;;;4.52;100.00;101995.47;7391270;19;20422;-58
2022/11/30 04:10:14;;;;;;;101.73;37.30;;;;;;;4.54;100.00;101997.41;7397231;19;20397;-59
2022/11/30 04:12:43;;;;;;;103.20;36.60;;;;;;;4.63;100.00;101998.94;7390080;19;20487;-59
2022/11/30 04:15:15;;;;;;;114.57;39.27;;;;;;;4.56;100.00;102002.66;7390743;19;20408;-56
2022/11/30 04:17:45;;;;;;;109.73;38.30;;;;;;;4.64;100.00;102001.66;7390955;19;20403;-59
2022/11/30 04:20:14;;;;;;;122.83;39.60;;;;;;;4.38;100.00;102001.94;7394789;19;20398;-59
2022/11/30 04:22:44;;;;;;;93.33;35.37;;;;;;;4.44;100.00;102005.94;7391359;19;20846;-59
2022/11/30 04:25:13;;;;;;;117.00;39.30;;;;;;;4.57;100.00;101996.78;7391888;19;20976;-58
2022/11/30 04:27:43;;;;;;;107.57;36.90;;;;;;;4.54;100.00;102004.16;7389641;19;20443;-57
2022/11/30 04:30:18;;;;;;;118.67;38.57;;;;;;;4.45;100.00;102006.81;7393126;19;20412;-60
2022/11/30 04:32:48;;;;;;;102.70;36.20;;;;;;;4.38;100.00;102015.63;7391302;19;20454;-58
2022/11/30 04:35:17;;;;;;;117.10;38.53;;;;;;;4.37;100.00;102015.50;7391982;19;20442;-58
2022/11/30 04:37:46;;;;;;;112.83;37.57;;;;;;;4.37;100.00;102015.50;7391291;19;20409;-59
2022/11/30 04:40:16;;;;;;;112.27;37.37;;;;;;;4.36;100.00;102017.13;7393110;19;20389;-59
2022/11/30 04:42:45;;;;;;;110.37;36.80;;;;;;;4.09;100.00;102011.41;7386063;19;20411;-58
2022/11/30 04:45:17;;;;;;;114.47;37.50;;;;;;;4.06;100.00;102013.72;7392532;19;20435;-55
2022/11/30 04:47:47;;;;;;;107.47;35.80;;;;;;;4.20;100.00;102002.13;7390203;19;20416;-58
2022/11/30 04:50:16;;;;;;;113.30;38.60;;;;;;;4.11;100.00;102004.75;7393924;19;20401;-57
2022/11/30 04:52:46;;;;;;;121.73;38.87;;;;;;;4.03;100.00;101995.53;7390533;19;20435;-58
2022/11/30 04:55:18;;;;;;;126.53;39.10;;;;;;;3.87;100.00;101995.84;7392195;19;20403;-59
2022/11/30 04:57:47;;;;;;;118.13;38.83;;;;;;;4.05;100.00;101991.44;7390809;19;20434;-58
2022/11/30 05:00:21;;;;;;;125.13;37.67;;;;;;;4.18;100.00;101988.31;7393661;19;20416;-58
2022/11/30 05:02:51;;;;;;;112.47;39.53;;;;;;;4.18;100.00;101984.13;7390725;19;20987;-57
2022/11/30 05:05:21;;;;;;;152.10;42.70;;;;;;;4.17;100.00;101982.31;7392289;19;20446;-55
2022/11/30 05:07:51;;;;;;;116.80;39.17;;;;;;;4.00;100.00;101993.59;7390902;19;20423;-58
2022/11/30 05:10:21;;;;;;;121.07;39.37;;;;;;;4.22;100.00;101989.50;7393045;19;20384;-56
2022/11/30 05:12:51;;;;;;;115.20;37.53;;;;;;;4.08;100.00;101995.94;7387049;19;20450;-53
2022/11/30 05:15:23;;;;;;;108.73;36.50;;;;;;;4.31;100.00;101995.41;7391174;19;20506;-58
2022/11/30 05:17:53;;;;;;;112.13;38.60;;;;;;;4.19;100.00;101998.69;7390883;19;20449;-57
2022/11/30 05:20:22;;;;;;;106.00;36.03;;;;;;;4.25;100.00;102000.88;7392785;19;20394;-57
2022/11/30 05:22:52;;;;;;;115.10;36.87;;;;;;;4.15;100.00;102001.72;7390009;19;20422;-56
2022/11/30 05:25:21;;;;;;;129.73;41.03;;;;;;;4.28;100.00;102005.34;7390347;19;20788;-60
2022/11/30 05:27:50;;;;;;;114.53;38.60;;;;;;;4.31;100.00;102015.88;7390482;19;20408;-56
2022/11/30 05:30:20;;;;;;;126.57;37.50;;;;;;;4.17;100.00;102018.06;7393042;19;20766;-57
2022/11/30 05:32:54;;;;;;;120.20;36.67;;;;;;;4.24;100.00;102014.41;7388139;19;20436;-57
2022/11/30 05:35:23;;;;;;;109.67;35.83;;;;;;;4.38;100.00;102007.97;7391265;19;20444;-56
2022/11/30 05:37:53;;;;;;;114.23;35.73;;;;;;;4.19;100.00;102016.56;7390302;19;20422;-60
2022/11/30 05:40:24;;;;;;;108.70;36.67;;;;;;;4.15;100.00;102009.41;7392174;19;20392;-59
2022/11/30 05:42:57;;;;;;;95.87;35.43;;;;;;;4.05;100.00;102012.78;7388800;19;20416;-58
2022/11/30 05:45:27;;;;;;;108.17;37.90;;;;;;;4.36;100.00;102009.47;7391434;19;20439;-58
2022/11/30 05:47:59;;;;;;;111.93;36.20;;;;;;;4.40;100.00;102016.66;7388700;19;20411;-59
2022/11/30 05:50:28;;;;;;;116.67;37.80;;;;;;;4.17;100.00;102015.53;7393311;19;20382;-59
2022/11/30 05:52:59;;;;;;;122.07;38.10;;;;;;;4.23;100.00;102016.81;7387543;19;20801;-57
2022/11/30 05:55:31;;;;;;;127.53;40.00;;;;;;;4.32;100.00;102010.88;7390391;19;20421;-58
2022/11/30 05:58:00;;;;;;;99.73;35.03;;;;;;;4.33;100.00;102006.66;7389893;19;20412;-57
2022/11/30 06:00:30;;;;;;;112.23;37.77;;;;;;;4.19;100.00;102014.03;7392761;19;20388;-59
2022/11/30 06:03:02;;;;;;;104.50;34.67;;;;;;;4.42;100.00;102019.34;7393484;19;20454;-58
2022/11/30 06:05:31;;;;;;;106.03;35.90;;;;;;;4.32;100.00;102025.31;7390387;19;20761;-58
2022/11/30 06:08:01;;;;;;;111.67;36.77;;;;;;;4.19;100.00;102026.78;7393213;19;21220;-57
2022/11/30 06:10:34;;;;;;;106.10;35.80;;;;;;;4.32;100.00;102026.19;7396759;19;20430;-58
2022/11/30 06:13:08;;;;;;;110.63;36.43;;;;;;;4.34;100.00;102036.56;7388832;19;20432;-59
2022/11/30 06:15:38;;;;;;;114.37;37.10;;;;;;;4.33;100.00;102034.78;7389043;19;20399;-56
2022/11/30 06:18:10;;;;;;;122.43;36.77;;;;;;;4.30;100.00;102037.94;7390702;19;21021;-59
2022/11/30 06:20:40;;;;;;;105.93;36.43;;;;;;;4.18;100.00;102039.44;7385988;19;20761;-59
2022/11/30 06:23:10;;;;;;;112.50;36.10;;;;;;;4.24;100.00;102036.50;7389745;19;20408;-59
2022/11/30 06:25:40;;;;;;;114.73;37.37;;;;;;;4.19;100.00;102037.00;7387963;19;20405;-59
2022/11/30 06:28:10;;;;;;;113.27;38.47;;;;;;;4.06;100.00;102039.25;7389945;19;20885;-59
2022/11/30 06:30:40;;;;;;;95.17;34.20;;;;;;;4.09;100.00;102047.16;7386323;19;20957;-59
2022/11/30 06:33:12;;;;;;;107.83;35.57;;;;;;;4.20;100.00;102045.56;7388809;19;21097;-57
2022/11/30 06:35:46;;;;;;;102.73;34.43;;;;;;;4.17;100.00;102043.63;7389978;19;20407;-59
2022/11/30 06:38:16;;;;;;;111.10;37.03;;;;;;;4.22;100.00;102054.28;7390202;19;20416;-59
2022/11/30 06:40:45;;;;;;;100.43;35.60;;;;;;;4.53;100.00;102048.38;7387691;19;20941;-59
2022/11/30 06:43:15;;;;;;;120.23;35.33;;;;;;;4.38;100.00;102053.97;7389985;19;20394;-60
2022/11/30 06:45:45;;;;;;;101.03;33.73;;;;;;;4.35;100.00;102063.91;7383429;19;20384;-60
2022/11/30 06:48:17;;;;;;;111.00;39.30;;;;;;;4.14;100.00;102061.25;7390477;19;20410;-59
2022/11/30 06:50:47;;;;;;;108.87;37.50;;;;;;;4.09;100.00;102054.84;7388896;19;20400;-58
2022/11/30 06:53:18;;;;;;;111.00;37.17;;;;;;;4.35;100.00;102053.69;7388547;19;20970;-61
2022/11/30 06:55:48;;;;;;;113.43;37.07;;;;;;;4.54;100.00;102055.28;7388869;19;20395;-60
2022/11/30 06:58:17;;;;;;;97.40;34.37;;;;;;;4.32;100.00;102068.75;7390949;19;20416;-59
2022/11/30 07:00:47;;;;;;;113.00;37.20;;;;;;;4.08;100.00;102057.25;7388413;19;20397;-60
2022/11/30 07:03:19;;;;;;;116.73;37.10;;;;;;;4.01;100.00;102055.81;7388172;19;20392;-59
2022/11/30 07:05:48;;;;;;;106.93;36.77;;;;;;;3.91;100.00;102054.97;7392524;19;20393;-59
2022/11/30 07:08:18;;;;;;;118.33;37.07;;;;;;;4.03;100.00;102059.41;7396597;19;20382;-60
2022/11/30 07:10:49;;;;;;;131.03;41.43;;;;;;;4.07;100.00;102058.91;7393898;19;20399;-60
2022/11/30 07:13:19;;;;;;;124.37;40.70;;;;;;;4.23;100.00;102062.81;7395465;19;20400;-60
2022/11/30 07:15:49;;;;;;;117.83;37.97;;;;;;;4.04;100.00;102072.31;7394370;19;20393;-60
2022/11/30 07:18:21;;;;;;;111.27;37.07;;;;;;;4.10;100.00;102071.06;7396789;19;20389;-59
2022/11/30 07:21:00;;;;;;;114.13;36.40;;;;;;;4.18;100.00;102064.97;7394237;19;20436;-59
2022/11/30 07:26:12;;;;;;;122.47;38.07;;;;;;;4.14;100.00;102068.91;7391959;19;20948;-60
2022/11/30 07:28:44;;;;;;;114.37;36.67;;;;;;;4.37;100.00;102075.19;7397701;19;20383;-60
2022/11/30 07:31:18;;;;;;;113.03;37.73;;;;;;;4.41;100.00;102073.78;7393550;19;20409;-60
2022/11/30 07:33:51;;;;;;;130.07;47.93;;;;;;;4.29;100.00;102078.69;7395173;19;20491;-59
2022/11/30 07:36:22;;;;;;;118.30;39.93;;;;;;;4.06;100.00;102080.13;7394758;19;20415;-59
2022/11/30 07:38:51;;;;;;;121.10;42.03;;;;;;;4.06;100.00;102082.69;7397066;19;20391;-59
2022/11/30 07:41:21;;;;;;;137.93;43.03;;;;;;;4.14;100.00;102079.13;7395097;19;20431;-59
2022/11/30 07:43:50;;;;;;;127.97;39.20;;;;;;;4.10;100.00;102082.16;7396716;19;20420;-59
2022/11/30 07:46:20;;;;;;;122.57;42.30;;;;;;;4.10;100.00;102071.94;7395583;19;20404;-59
2022/11/30 07:48:52;;;;;;;124.57;41.83;;;;;;;4.15;100.00;102075.81;7397305;19;20375;-59
2022/11/30 07:51:23;;;;;;;119.43;40.47;;;;;;;4.09;100.00;102069.28;7393738;19;20427;-59
2022/11/30 07:53:53;;;;;;;118.50;40.40;;;;;;;4.17;100.00;102074.28;7395242;19;20455;-59
2022/11/30 07:56:22;;;;;;;142.90;43.27;;;;;;;4.04;100.00;102079.06;7393971;19;20407;-59
2022/11/30 07:58:53;;;;;;;125.10;39.67;;;;;;;4.01;100.00;102078.81;7396744;19;20381;-59
2022/11/30 08:01:25;;;;;;;119.77;40.03;;;;;;;3.93;100.00;102090.88;7392844;19;20977;-60
2022/11/30 08:03:58;;;;;;;127.30;40.10;;;;;;;3.97;100.00;102084.38;7395584;19;20783;-59
2022/11/30 08:06:29;;;;;;;122.80;39.20;;;;;;;4.07;100.00;102091.22;7394344;19;20453;-59
2022/11/30 08:09:00;;;;;;;100.93;35.03;;;;;;;3.87;100.00;102092.88;7396189;19;20406;-59
2022/11/30 08:11:32;;;;;;;104.83;36.27;;;;;;;3.75;100.00;102082.47;7396496;19;20422;-60
2022/11/30 08:14:01;;;;;;;107.77;34.37;;;;;;;3.70;100.00;102086.25;7394042;19;20848;-59
2022/11/30 08:16:33;;;;;;;134.77;40.57;;;;;;;3.63;100.00;102088.25;7390451;19;20790;-59
2022/11/30 08:19:05;;;;;;;109.57;38.20;;;;;;;3.64;100.00;102090.03;7395794;19;20396;-59
2022/11/30 08:21:34;;;;;;;119.57;37.90;;;;;;;3.54;100.00;102082.28;7392161;19;20430;-59
2022/11/30 08:24:04;;;;;;;140.10;43.37;;;;;;;3.55;100.00;102084.09;7394277;19;20424;-58
2022/11/30 08:26:35;;;;;;;133.10;38.23;;;;;;;3.75;100.00;102082.47;7393050;19;20441;-59
2022/11/30 08:29:04;;;;;;;114.73;36.87;;;;;;;3.95;100.00;102085.91;7395411;19;20380;-58
2022/11/30 08:31:35;;;;;;;142.70;39.80;;;;;;;3.82;100.00;102073.69;7392065;19;20408;-55
2022/11/30 08:34:09;;;;;;;133.97;39.47;;;;;;;3.74;100.00;102080.69;7393326;19;20889;-59
2022/11/30 08:36:39;;;;;;;115.27;39.23;;;;;;;3.79;100.00;102084.50;7392737;19;20415;-59
2022/11/30 08:39:10;;;;;;;121.87;38.40;;;;;;;3.77;100.00;102081.84;7394763;19;20415;-60
2022/11/30 08:41:42;;;;;;;122.93;38.47;;;;;;;3.85;100.00;102079.97;7392479;19;20505;-59
2022/11/30 08:44:11;;;;;;;110.93;37.33;;;;;;;3.82;100.00;102087.38;7393860;19;20415;-59
2022/11/30 08:46:41;;;;;;;120.87;37.90;;;;;;;4.00;100.00;102090.66;7392973;19;20437;-59
2022/11/30 08:49:33;;;;;;;120.67;36.77;;;;;;;4.01;100.00;102086.47;7395431;19;20399;-59
2022/11/30 08:52:03;;;;;;;124.70;36.30;;;;;;;4.04;100.00;102102.97;7391800;19;20415;-59
2022/11/30 08:54:48;;;;;;;121.13;36.90;;;;;;;3.87;100.00;102106.56;7392626;19;20427;-57
2022/11/30 08:57:20;;;;;;;108.93;37.10;;;;;;;3.92;100.00;102102.75;7392337;19;20494;-55
2022/11/30 08:59:50;;;;;;;121.63;38.40;;;;;;;3.95;100.00;102111.47;7394613;19;20388;-57
2022/11/30 09:02:20;;;;;;;101.37;35.40;;;;;;;3.97;100.00;102115.03;7390645;19;20426;-58
2022/11/30 09:04:52;;;;;;;123.60;38.57;;;;;;;4.02;100.00;102119.81;7392749;19;20967;-58
2022/11/30 09:07:22;;;;;;;103.03;36.20;;;;;;;3.95;100.00;102126.78;7391363;19;20783;-58
2022/11/30 09:09:52;;;;;;;98.10;33.50;;;;;;;4.05;100.00;102121.72;7394151;19;20392;-59
2022/11/30 09:12:21;;;;;;;101.83;35.30;;;;;;;4.13;100.00;102130.09;7391305;19;20438;-59
2022/11/30 09:14:51;;;;;;;107.07;36.40;;;;;;;4.04;100.00;102130.16;7392297;19;20832;-57
2022/11/30 09:17:26;;;;;;;95.17;34.70;;;;;;;4.23;100.00;102140.38;7391554;19;20839;-60
2022/11/30 09:19:59;;;;;;;92.00;35.07;;;;;;;4.11;100.00;102139.28;7394287;19;20399;-59
2022/11/30 09:22:29;;;;;;;98.67;34.70;;;;;;;4.00;100.00;102148.53;7390488;19;20415;-59
2022/11/30 09:24:58;;;;;;;85.43;34.30;;;;;;;4.05;100.00;102149.81;7392014;19;20416;-59
2022/11/30 09:27:29;;;;;;;96.93;34.37;;;;;;;3.90;100.00;102162.13;7388357;19;20450;-59
2022/11/30 09:29:58;;;;;;;92.63;33.53;;;;;;;3.78;100.00;102155.13;7393771;19;20908;-59
2022/11/30 09:32:28;;;;;;;94.77;34.20;;;;;;;3.78;100.00;102161.88;7390598;19;20416;-58
2022/11/30 09:35:00;;;;;;;88.20;33.33;;;;;;;3.75;100.00;102166.72;7391800;19;21068;-59
2022/11/30 09:37:30;;;;;;;100.40;34.13;;;;;;;3.68;100.00;102167.78;7391066;19;20407;-59
2022/11/30 09:39:59;;;;;;;86.80;34.20;;;;;;;3.73;100.00;102165.66;7393163;19;20400;-59
2022/11/30 09:42:35;;;;;;;98.00;36.57;;;;;;;3.71;100.00;102162.06;7389999;19;20419;-59
2022/11/30 09:45:08;;;;;;;85.43;33.43;;;;;;;3.72;100.00;102158.75;7391508;19;20419;-58
2022/11/30 09:48:00;;;;;;;84.93;33.20;;;;;;;3.70;100.00;102163.72;7388249;19;20415;-59
2022/11/30 09:50:36;;;;;;;84.20;33.10;;;;;;;3.69;100.00;102159.38;7392910;19;20424;-59
2022/11/30 09:53:10;;;;;;;87.90;33.43;;;;;;;3.69;100.00;102158.50;7391143;19;20418;-59
2022/11/30 09:55:42;;;;;;;82.40;33.50;;;;;;;3.71;100.00;102164.63;7388851;19;20423;-59
2022/11/30 09:58:23;;;;;;;74.23;31.60;;;;;;;3.69;100.00;102163.59;7392282;19;20901;-59
2022/11/30 10:00:53;;;;;;;85.70;32.63;;;;;;;3.71;100.00;102167.19;7389979;19;20395;-59
2022/11/30 10:03:24;;;;;;;78.07;32.57;;;;;;;3.74;100.00;102158.16;7394051;19;20450;-59
2022/11/30 10:06:00;;;;;;;78.63;31.53;;;;;;;3.71;100.00;102162.97;7390121;19;20392;-59
2022/11/30 10:08:47;;;;;;;86.93;33.73;;;;;;;3.74;100.00;102152.16;7391370;19;20440;-58
2022/11/30 10:11:38;;;;;;;80.07;31.13;;;;;;;3.74;100.00;102149.59;7390109;19;20415;-59
2022/11/30 10:14:26;;;;;;;73.67;31.10;;;;;;;3.77;100.00;102157.53;7394848;19;20450;-59
2022/11/30 10:17:04;;;;;;;72.90;30.00;;;;;;;3.75;100.00;102153.94;7389504;19;20419;-58
2022/11/30 10:19:48;;;;;;;71.97;30.47;;;;;;;3.73;100.00;102155.44;7390729;19;20380;-55
2022/11/30 10:22:27;;;;;;;68.73;30.00;;;;;;;3.77;100.00;102157.53;7386414;19;20433;-58
2022/11/30 10:25:11;;;;;;;74.10;30.90;;;;;;;3.76;100.00;102151.50;7389613;19;20439;-58
2022/11/30 10:27:51;;;;;;;69.57;28.63;;;;;;;3.78;100.00;102154.22;7392072;19;20964;-59
2022/11/30 10:30:23;;;;;;;77.20;31.80;;;;;;;3.81;100.00;102151.03;7391422;19;20391;-54
2022/11/30 10:32:54;;;;;;;79.23;31.60;;;;;;;3.88;100.00;102151.75;7389676;19;20439;-57
2022/11/30 10:35:34;;;;;;;68.43;30.20;;;;;;;3.97;100.00;102151.69;7389715;19;20446;-59
2022/11/30 10:38:16;;;;;;;67.27;30.10;;;;;;;3.91;100.00;102146.91;7390791;19;20407;-60
2022/11/30 10:40:50;;;;;;;79.43;34.03;;;;;;;3.89;100.00;102151.00;7387680;19;20407;-57
2022/11/30 10:43:24;;;;;;;88.33;32.20;;;;;;;3.85;100.00;102154.00;7390301;19;20407;-57
2022/11/30 10:45:54;;;;;;;77.20;29.47;;;;;;;3.85;100.00;102155.69;7389205;19;20748;-59
2022/11/30 10:48:29;;;;;;;71.13;28.73;;;;;;;3.84;100.00;102152.22;7390895;19;20414;-59
2022/11/30 10:50:59;;;;;;;75.77;30.63;;;;;;;3.83;100.00;102162.28;7389680;19;20386;-59
2022/11/30 10:53:34;;;;;;;73.53;29.77;;;;;;;3.85;100.00;102156.56;7390431;19;20387;-58
2022/11/30 10:56:06;;;;;;;71.30;30.20;;;;;;;3.81;100.00;102154.50;7387591;19;20419;-57
2022/11/30 10:58:40;;;;;;;73.00;30.83;;;;;;;3.75;100.00;102159.06;7390725;19;20396;-58
2022/11/30 11:01:11;;;;;;;75.33;30.70;;;;;;;3.75;100.00;102153.94;7387679;19;20430;-59
2022/11/30 11:03:42;;;;;;;68.40;29.37;;;;;;;3.65;100.00;102163.28;7389100;19;20426;-56
2022/11/30 11:06:17;;;;;;;73.50;30.50;;;;;;;3.67;100.00;102154.88;7388127;19;20426;-59
2022/11/30 11:08:49;;;;;;;63.20;28.13;;;;;;;3.73;100.00;102150.34;7390615;19;20391;-56
2022/11/30 11:11:31;;;;;;;71.23;30.10;;;;;;;3.77;100.00;102154.97;7387533;19;20414;-55
2022/11/30 11:14:16;;;;;;;71.87;31.80;;;;;;;3.77;100.00;102162.63;7392657;19;20423;-59
2022/11/30 11:16:54;;;;;;;75.67;30.90;;;;;;;3.72;100.00;102154.56;7387905;19;20446;-58
2022/11/30 11:19:26;;;;;;;75.53;30.53;;;;;;;3.74;100.00;102157.25;7390558;19;20379;-56
2022/11/30 11:21:56;;;;;;;76.43;30.50;;;;;;;3.78;100.00;102150.03;7386854;19;20415;-59
2022/11/30 11:24:30;;;;;;;68.67;29.57;;;;;;;3.76;100.00;102151.50;7389210;19;20424;-59
2022/11/30 11:26:59;;;;;;;67.77;29.07;;;;;;;3.78;100.00;102155.13;7387481;19;20414;-57
2022/11/30 11:29:34;;;;;;;70.70;29.93;;;;;;;3.78;100.00;102154.22;7390061;19;20368;-59